Port Columbus International Airport
KCMH : now visible

Airfield :











YOU CAN JOIN US ON...

 
LOGIN :

Register | Disclaimer

   EN    FR    IT 

 









Legend :    VFR   Marginal VFR   IFR   Intensive IFR   Very Intensive IFR
Visi :
Ceiling :
>= 8 km
>= 3000ft
5 to 8 km
1000 to 3000 ft
1500m to 5 km
500 to 1000 ft
800 to 1500m
200 to 500 ft
< 800m
< 200 ft
Symbols :   Thunderstorms  Fog  Heavy snow  Heavy precipitations  Wind > 20 kt







- Airport Elevation : 815 ft
- IATA code : CMH


KCMH - Port Columbus International

CURRENT METAR :
  • 152151Z 28014KT 10SM OVC220 01/M07 A2987 RMK AO2 SLP121 T00061067

EXPIRED METARs :
  • 152051Z 29013KT 10SM FEW023 OVC200 01/M07 A2985 RMK AO2 SLP114 T00111072 51021
  • 151951Z 27015G23KT 10SM FEW022 OVC200 02/M06 A2985 RMK AO2 SLP110 T00221056

TAF KCMH
Valid from the 15 at 18:00 until the 16 at 18:00 UTC


151743Z 1518/1618 28015KT P6SM SCT025 BKN200
FM160000 31009KT P6SM BKN150
FM160900 01007KT P6SM FEW015 SCT150
KZID FIR / North America



MET'MAP, your aeronautical weather chart ! - Copyright ORBIFLY December 2007 - Disclaimer

ORBIFLY MET'MAP TEAM :

Programming & Development : Alexandra Zaïnal
Concept & Development : Baudouin d'Aumeries
Co-Development & Prog : Marc-Olivier Méhu
Technical & hardware support : Manuel Goepfert

Contact : metmap@orbifly.com




SOURCES & CREDITS :

   NOAA       Earth
Advisory